createdAt,value
2023-01-18T00:00:08.441Z,96138.13
2023-01-18T00:02:56.017Z,96138.94
2023-01-18T00:05:43.305Z,96153.25
2023-01-18T00:08:31.848Z,96167.44
2023-01-18T00:11:18.937Z,96159.75
2023-01-18T00:14:05.392Z,96138.72
2023-01-18T00:16:51.639Z,96147.22
2023-01-18T00:19:37.828Z,96159.16
2023-01-18T00:22:24.273Z,96174.47
2023-01-18T00:25:11.015Z,96149.13
2023-01-18T00:27:57.517Z,96157.63
2023-01-18T00:30:43.812Z,96173.72
2023-01-18T00:33:30.032Z,96172.03
2023-01-18T00:36:17.777Z,96135.78
2023-01-18T00:39:04.362Z,96146.72
2023-01-18T00:42:09.696Z,96152.75
2023-01-18T00:44:56.318Z,96151.84
2023-01-18T00:47:42.683Z,96107.97
2023-01-18T00:50:28.932Z,96178.06
2023-01-18T00:53:15.124Z,96175.47
2023-01-18T00:56:01.580Z,96168.75
2023-01-18T00:58:48.144Z,96170.38
2023-01-18T01:01:34.817Z,96161.91
2023-01-18T01:04:39.936Z,96177.00
2023-01-18T01:07:26.187Z,96166.09
2023-01-18T01:10:12.373Z,96175.38
2023-01-18T01:13:17.479Z,96150.06
2023-01-18T01:16:27.864Z,96183.03
2023-01-18T01:19:32.873Z,96183.75
2023-01-18T01:22:37.789Z,96160.91
2023-01-18T01:25:43.011Z,96176.91
2023-01-18T01:28:29.402Z,96181.91
2023-01-18T01:31:17.264Z,96122.88
2023-01-18T01:34:03.540Z,96193.72
2023-01-18T01:36:50.752Z,96186.94
2023-01-18T01:39:37.405Z,96166.78
2023-01-18T01:42:23.483Z,96208.19
2023-01-18T01:45:10.397Z,96206.56
2023-01-18T01:47:57.467Z,96200.63
2023-01-18T01:50:43.607Z,96202.31
2023-01-18T01:53:29.824Z,96213.31
2023-01-18T01:56:18.579Z,96162.63
2023-01-18T01:59:06.211Z,96223.47
2023-01-18T02:01:52.525Z,96220.97
2023-01-18T02:04:44.121Z,96195.66
2023-01-18T02:07:32.553Z,96198.13
2023-01-18T02:10:19.173Z,96231.94
2023-01-18T02:13:09.389Z,96202.44
2023-01-18T02:16:34.460Z,96232.75
2023-01-18T02:20:07.199Z,96232.81
2023-01-18T02:23:14.635Z,96237.03
2023-01-18T02:26:06.959Z,96241.25
2023-01-18T02:29:03.891Z,96227.75
2023-01-18T02:32:05.309Z,96244.69
2023-01-18T02:35:07.672Z,96249.72
2023-01-18T02:38:11.982Z,96248.09
2023-01-18T02:41:01.419Z,96254.00
2023-01-18T02:44:11.855Z,96254.81
2023-01-18T02:46:58.214Z,96241.22
2023-01-18T02:49:44.443Z,96231.19
2023-01-18T02:52:41.828Z,96263.19
2023-01-18T02:55:40.309Z,96264.09
2023-01-18T02:58:47.566Z,96264.00
2023-01-18T03:01:59.567Z,96265.72
2023-01-18T03:04:55.596Z,96255.63
2023-01-18T03:07:55.802Z,96261.56
2023-01-18T03:11:15.553Z,96241.38
2023-01-18T03:14:18.883Z,96259.94
2023-01-18T03:17:25.733Z,96285.28
2023-01-18T03:20:19.093Z,96248.13
2023-01-18T03:23:34.998Z,96270.13
2023-01-18T03:26:23.824Z,96250.75
2023-01-18T03:29:31.657Z,96249.91
2023-01-18T03:32:37.160Z,96257.47
2023-01-18T03:35:27.120Z,96266.69
2023-01-18T03:38:14.531Z,96248.09
2023-01-18T03:41:01.975Z,96279.34
2023-01-18T03:43:52.652Z,96234.63
2023-01-18T03:46:40.586Z,96284.44
2023-01-18T03:49:29.916Z,96271.88
2023-01-18T03:52:43.077Z,96292.91
2023-01-18T03:55:43.473Z,96277.75
2023-01-18T03:58:35.245Z,96306.53
2023-01-18T04:01:22.242Z,96302.28
2023-01-18T04:04:08.875Z,96315.00
2023-01-18T04:06:54.946Z,96307.47
2023-01-18T04:09:41.276Z,96289.69
2023-01-18T04:12:28.235Z,96281.31
2023-01-18T04:15:14.534Z,96288.03
2023-01-18T04:18:00.771Z,96327.81
2023-01-18T04:20:47.047Z,96305.81
2023-01-18T04:23:33.271Z,96300.84
2023-01-18T04:26:19.463Z,96349.97
2023-01-18T04:29:05.952Z,96340.72
2023-01-18T04:31:52.224Z,96320.41
2023-01-18T04:34:38.797Z,96326.38
2023-01-18T04:37:30.536Z,96350.03
2023-01-18T04:40:17.005Z,96360.16
2023-01-18T04:43:04.463Z,96366.97
2023-01-18T04:45:55.342Z,96345.81
2023-01-18T04:48:42.276Z,96371.16
2023-01-18T04:51:31.240Z,96373.69
2023-01-18T04:54:18.659Z,96355.94
2023-01-18T04:57:04.819Z,96388.19
2023-01-18T04:59:51.333Z,96382.28
2023-01-18T05:02:38.038Z,96385.69
2023-01-18T05:05:26.339Z,96411.06
2023-01-18T05:08:12.779Z,96367.94
2023-01-18T05:11:04.559Z,96405.94
2023-01-18T05:13:51.231Z,96394.94
2023-01-18T05:16:37.661Z,96418.69
2023-01-18T05:19:24.091Z,96378.94
2023-01-18T05:22:10.598Z,96440.72
2023-01-18T05:24:56.859Z,96442.41
2023-01-18T05:27:43.132Z,96441.56
2023-01-18T05:30:29.376Z,96395.91
2023-01-18T05:33:19.511Z,96467.00
2023-01-18T05:36:06.304Z,96453.47
2023-01-18T05:38:52.613Z,96470.41
2023-01-18T05:41:38.827Z,96474.66
2023-01-18T05:44:25.497Z,96478.88
2023-01-18T05:47:11.812Z,96492.44
2023-01-18T05:50:00.422Z,96490.78
2023-01-18T05:52:46.657Z,96506.84
2023-01-18T05:55:33.261Z,96506.84
2023-01-18T05:58:19.955Z,96514.50
2023-01-18T06:01:08.271Z,96522.94
2023-01-18T06:03:55.264Z,96512.81
2023-01-18T06:06:41.704Z,96506.00
2023-01-18T06:09:30.019Z,96500.09
2023-01-18T06:12:16.569Z,96538.22
2023-01-18T06:15:03.307Z,96536.50
2023-01-18T06:17:49.783Z,96557.69
2023-01-18T06:20:36.712Z,96564.47
2023-01-18T06:23:24.044Z,96574.66
2023-01-18T06:26:10.419Z,96570.41
2023-01-18T06:28:57.735Z,96583.97
2023-01-18T06:31:44.095Z,96579.72
2023-01-18T06:34:30.605Z,96597.53
2023-01-18T06:37:17.335Z,96558.56
2023-01-18T06:40:03.779Z,96548.38
2023-01-18T06:42:50.401Z,96593.28
2023-01-18T06:45:36.881Z,96595.00
2023-01-18T06:48:24.711Z,96612.78
2023-01-18T06:51:12.464Z,96567.00
2023-01-18T06:53:58.927Z,96613.66
2023-01-18T06:56:45.523Z,96592.44
2023-01-18T06:59:32.041Z,96587.34
2023-01-18T07:02:19.975Z,96641.56
2023-01-18T07:05:06.791Z,96629.69
2023-01-18T07:07:53.185Z,96643.25
2023-01-18T07:10:39.659Z,96661.09
2023-01-18T07:13:26.088Z,96630.53
2023-01-18T07:16:17.382Z,96631.38
2023-01-18T07:19:04.632Z,96613.56
2023-01-18T07:21:53.623Z,96650.03
2023-01-18T07:24:39.999Z,96641.50
2023-01-18T07:27:26.761Z,96644.06
2023-01-18T07:30:13.770Z,96653.38
2023-01-18T07:33:00.495Z,96694.91
2023-01-18T07:35:46.969Z,96686.44
2023-01-18T07:38:33.952Z,96702.59
2023-01-18T07:41:21.995Z,96716.13
2023-01-18T07:44:11.869Z,96714.44
2023-01-18T07:46:58.478Z,96717.81
2023-01-18T07:49:47.997Z,96722.94
2023-01-18T07:52:41.934Z,96731.41
2023-01-18T07:55:28.870Z,96718.69
2023-01-18T07:58:15.547Z,96694.88
2023-01-18T08:01:07.189Z,96744.16
2023-01-18T08:03:54.634Z,96745.00
2023-01-18T08:06:41.265Z,96751.78
2023-01-18T08:09:27.425Z,96722.03
2023-01-18T08:12:17.954Z,96682.16
2023-01-18T08:15:04.733Z,96761.97
2023-01-18T08:17:51.588Z,96738.19
2023-01-18T08:20:38.044Z,96778.09
2023-01-18T08:23:24.562Z,96753.47
2023-01-18T08:26:12.859Z,96775.56
2023-01-18T08:28:59.218Z,96749.22
2023-01-18T08:31:45.691Z,96790.00
2023-01-18T08:34:31.951Z,96802.72
2023-01-18T08:37:18.334Z,96787.41
2023-01-18T08:40:04.939Z,96809.50
2023-01-18T08:42:56.850Z,96791.63
2023-01-18T08:45:43.360Z,96808.59
2023-01-18T08:48:29.800Z,96820.47
2023-01-18T08:51:18.766Z,96829.78
2023-01-18T08:54:06.495Z,96829.81
2023-01-18T08:56:53.101Z,96853.56
2023-01-18T08:59:39.394Z,96832.31
2023-01-18T09:02:26.075Z,96853.59
2023-01-18T09:05:12.711Z,96822.16
2023-01-18T09:07:59.089Z,96851.06
2023-01-18T09:10:45.478Z,96884.13
2023-01-18T09:13:32.858Z,96888.38
2023-01-18T09:16:19.134Z,96887.50
2023-01-18T09:19:06.446Z,96866.28
2023-01-18T09:21:53.273Z,96904.53
2023-01-18T09:24:39.413Z,96878.16
2023-01-18T09:27:25.687Z,96884.97
2023-01-18T09:30:12.552Z,96890.94
2023-01-18T09:32:59.322Z,96921.56
2023-01-18T09:35:47.805Z,96943.66
2023-01-18T09:38:35.058Z,96936.06
2023-01-18T09:41:42.955Z,96929.25
2023-01-18T09:44:40.560Z,96943.72
2023-01-18T09:47:30.805Z,96948.84
2023-01-18T09:50:18.951Z,96920.81
2023-01-18T09:53:49.993Z,96947.16
2023-01-18T09:56:46.696Z,96964.16
2023-01-18T09:59:41.951Z,96959.06
2023-01-18T10:02:39.200Z,96976.06
2023-01-18T10:05:29.491Z,96982.00
2023-01-18T10:08:25.331Z,96975.22
2023-01-18T10:11:21.099Z,96991.34
2023-01-18T10:14:29.266Z,96988.78
2023-01-18T10:17:22.893Z,96991.34
2023-01-18T10:20:20.095Z,96989.63
2023-01-18T10:23:31.315Z,96994.72
2023-01-18T10:26:29.085Z,96982.00
2023-01-18T10:29:42.539Z,96995.59
2023-01-18T10:32:30.510Z,97006.66
2023-01-18T10:35:27.840Z,96990.50
2023-01-18T10:38:19.783Z,96995.63
2023-01-18T10:41:21.419Z,96987.13
2023-01-18T10:44:09.330Z,96984.56
2023-01-18T10:47:01.098Z,97004.97
2023-01-18T10:49:50.421Z,97006.63
2023-01-18T10:52:36.707Z,97010.03
2023-01-18T10:55:23.727Z,97028.69
2023-01-18T10:58:14.232Z,97004.06
2023-01-18T11:01:03.547Z,97004.88
2023-01-18T11:03:53.364Z,97020.19
2023-01-18T11:06:56.120Z,96998.97
2023-01-18T11:09:48.530Z,97017.69
2023-01-18T11:12:37.700Z,97037.25
2023-01-18T11:15:27.062Z,97046.59
2023-01-18T11:18:13.567Z,97004.09
2023-01-18T11:21:00.426Z,97021.09
2023-01-18T11:23:46.750Z,97025.38
2023-01-18T11:26:33.627Z,97032.16
2023-01-18T11:29:22.142Z,97042.34
2023-01-18T11:32:28.609Z,97042.34
2023-01-18T11:35:25.248Z,97057.66
2023-01-18T11:38:19.027Z,97063.59
2023-01-18T11:41:25.652Z,97053.41
2023-01-18T11:44:32.947Z,97017.72
2023-01-18T11:47:27.449Z,97077.22
2023-01-18T11:50:22.203Z,97083.19
2023-01-18T11:53:19.613Z,97040.63
2023-01-18T11:56:13.459Z,97083.13
2023-01-18T11:59:01.089Z,97050.81
2023-01-18T12:02:18.621Z,97086.53
2023-01-18T12:05:11.928Z,97093.31
2023-01-18T12:08:10.733Z,97098.41
2023-01-18T12:11:17.657Z,97099.28
2023-01-18T12:14:14.075Z,97099.28
2023-01-18T12:17:25.307Z,97103.56
2023-01-18T12:20:29.146Z,97112.94
2023-01-18T12:23:24.449Z,97112.97
2023-01-18T12:26:35.127Z,97120.63
2023-01-18T12:29:44.780Z,97125.69
2023-01-18T12:32:50.426Z,97126.56
2023-01-18T12:36:03.498Z,97104.44
2023-01-18T12:38:53.919Z,97141.00
2023-01-18T12:41:49.791Z,97147.78
2023-01-18T12:44:58.145Z,97144.38
2023-01-18T12:48:03.359Z,97105.25
2023-01-18T12:50:51.047Z,97129.03
2023-01-18T12:53:45.945Z,97105.22
2023-01-18T12:56:39.355Z,97139.19
2023-01-18T12:59:43.035Z,97117.94
2023-01-18T13:02:39.999Z,97156.31
2023-01-18T13:05:51.035Z,97158.06
2023-01-18T13:09:12.663Z,97173.34
2023-01-18T13:12:03.638Z,97169.94
2023-01-18T13:15:08.180Z,97151.22
2023-01-18T13:18:09.923Z,97173.34
2023-01-18T13:21:05.486Z,97178.47
2023-01-18T13:24:10.741Z,97185.25
2023-01-18T13:27:27.201Z,97175.91
2023-01-18T13:30:17.176Z,97196.28
2023-01-18T13:33:12.863Z,97197.16
2023-01-18T13:36:09.313Z,97215.03
2023-01-18T13:39:13.930Z,97211.63
2023-01-18T13:42:09.665Z,97222.66
2023-01-18T13:45:20.493Z,97199.63
2023-01-18T13:48:46.475Z,97232.84
2023-01-18T13:51:41.887Z,97229.44
2023-01-18T13:54:28.509Z,97243.94
2023-01-18T13:57:18.096Z,97238.00
2023-01-18T14:00:05.756Z,97257.56
2023-01-18T14:03:02.236Z,97239.72
2023-01-18T14:05:50.365Z,97261.84
2023-01-18T14:08:41.044Z,97264.41
2023-01-18T14:11:34.324Z,97273.72
2023-01-18T14:14:20.929Z,97280.50
2023-01-18T14:17:15.601Z,97290.72
2023-01-18T14:20:32.079Z,97278.78
2023-01-18T14:23:41.142Z,97291.59
2023-01-18T14:26:30.990Z,97295.84
2023-01-18T14:29:52.159Z,97300.06
2023-01-18T14:32:44.818Z,97307.72
2023-01-18T14:35:31.360Z,97301.72
2023-01-18T14:38:19.134Z,97314.50
2023-01-18T14:41:08.663Z,97322.16
2023-01-18T14:43:55.095Z,97331.47
2023-01-18T14:46:42.878Z,97330.63
2023-01-18T14:49:32.480Z,97334.06
2023-01-18T14:52:18.916Z,97340.03
2023-01-18T14:55:05.911Z,97339.09
2023-01-18T14:58:00.927Z,97324.59
2023-01-18T15:05:21.198Z,97354.41
2023-01-18T15:08:09.450Z,97342.41
2023-01-18T15:10:56.795Z,97367.09
2023-01-18T15:13:49.182Z,97368.75
2023-01-18T15:16:36.031Z,97376.41
2023-01-18T15:19:32.509Z,97375.53
2023-01-18T15:22:21.413Z,97396.78
2023-01-18T15:25:18.857Z,97395.91
2023-01-18T15:28:18.607Z,97395.91
2023-01-18T15:31:16.365Z,97408.63
2023-01-18T15:34:03.170Z,97409.41
2023-01-18T15:36:50.115Z,97410.22
2023-01-18T15:39:49.225Z,97423.00
2023-01-18T15:42:59.843Z,97423.78
2023-01-18T15:45:49.417Z,97421.09
2023-01-18T15:48:54.642Z,97432.94
2023-01-18T15:51:57.182Z,97434.56
2023-01-18T15:54:43.565Z,97442.22
2023-01-18T15:57:30.836Z,97446.47
2023-01-18T16:01:07.751Z,97449.81
2023-01-18T16:04:00.128Z,97433.50
2023-01-18T16:06:46.530Z,97459.00
2023-01-18T16:09:34.498Z,97463.25
2023-01-18T16:12:47.134Z,97459.69
2023-01-18T16:15:33.255Z,97465.50
2023-01-18T16:18:19.564Z,97466.94
2023-01-18T16:21:13.116Z,97474.44
2023-01-18T16:23:59.925Z,97456.38
2023-01-18T16:26:46.731Z,97491.13
2023-01-18T16:29:45.302Z,97494.25
2023-01-18T16:32:35.478Z,97500.03
2023-01-18T16:35:23.743Z,97512.16
2023-01-18T16:38:18.356Z,97512.75
2023-01-18T16:41:04.931Z,97514.13
2023-01-18T16:43:52.082Z,97520.59
2023-01-18T16:46:38.391Z,97525.88
2023-01-18T16:49:27.022Z,97526.31
2023-01-18T16:52:14.669Z,97534.03
2023-01-18T16:55:01.100Z,97538.84
2023-01-18T16:57:47.622Z,97529.91
2023-01-18T17:00:54.304Z,97546.91
2023-01-18T17:03:40.937Z,97554.09
2023-01-18T17:06:29.241Z,97562.16
2023-01-18T17:09:28.079Z,97563.06
2023-01-18T17:12:16.892Z,97560.31
2023-01-18T17:15:03.284Z,97566.91
2023-01-18T17:17:50.340Z,97562.16
2023-01-18T17:20:37.052Z,97574.47
2023-01-18T17:23:25.610Z,97582.28
2023-01-18T17:26:14.908Z,97581.16
2023-01-18T17:29:01.411Z,97585.84
2023-01-18T17:31:53.357Z,97537.19
2023-01-18T17:34:39.777Z,97587.53
2023-01-18T17:37:26.339Z,97602.38
2023-01-18T17:40:22.569Z,97595.78
2023-01-18T17:43:17.259Z,97604.66
2023-01-18T17:46:06.929Z,97613.53
2023-01-18T17:48:53.616Z,97596.13
2023-01-18T17:51:39.839Z,97614.63
2023-01-18T17:54:26.095Z,97628.84
2023-01-18T17:57:12.316Z,97613.34
2023-01-18T17:59:58.738Z,97624.88
2023-01-18T18:02:46.595Z,97625.81
2023-01-18T18:05:32.813Z,97632.28
2023-01-18T18:08:20.051Z,97646.72
2023-01-18T18:11:09.067Z,97652.63
2023-01-18T18:13:56.739Z,97652.75
2023-01-18T18:16:44.102Z,97662.88
2023-01-18T18:19:32.450Z,97665.31
2023-01-18T18:22:19.986Z,97668.88
2023-01-18T18:25:07.325Z,97664.22
2023-01-18T18:27:53.876Z,97666.28
2023-01-18T18:30:40.193Z,97669.34
2023-01-18T18:33:28.107Z,97688.56
2023-01-18T18:36:14.633Z,97677.66
2023-01-18T18:39:02.324Z,97686.91
2023-01-18T18:41:48.645Z,97693.84
2023-01-18T18:44:35.328Z,97688.72
2023-01-18T18:47:21.768Z,97697.78
2023-01-18T18:50:08.971Z,97713.00
2023-01-18T18:52:55.431Z,97687.50
2023-01-18T18:55:42.107Z,97705.53
2023-01-18T18:58:28.871Z,97716.28
2023-01-18T19:01:27.009Z,97737.03
2023-01-18T19:04:13.897Z,97736.06
2023-01-18T19:07:00.439Z,97726.00
2023-01-18T19:09:46.994Z,97678.50
2023-01-18T19:12:33.708Z,97749.50
2023-01-18T19:15:20.787Z,97758.31
2023-01-18T19:18:06.894Z,97743.75
2023-01-18T19:20:53.462Z,97732.44
2023-01-18T19:23:39.706Z,97751.41
2023-01-18T19:26:26.044Z,97756.34
2023-01-18T19:29:12.730Z,97770.63
2023-01-18T19:31:59.221Z,97763.97
2023-01-18T19:34:45.246Z,97766.72
2023-01-18T19:37:31.903Z,97776.72
2023-01-18T19:40:19.632Z,97780.31
2023-01-18T19:43:06.205Z,97801.34
2023-01-18T19:45:52.658Z,97778.66
2023-01-18T19:48:40.260Z,97797.41
2023-01-18T19:51:27.789Z,97787.53
2023-01-18T19:54:14.586Z,97784.13
2023-01-18T19:57:01.127Z,97798.19
2023-01-18T19:59:47.284Z,97799.94
2023-01-18T20:02:34.428Z,97806.72
2023-01-18T20:05:21.423Z,97802.75
2023-01-18T20:08:08.339Z,97800.22
2023-01-18T20:10:55.660Z,97805.88
2023-01-18T20:13:47.600Z,97803.41
2023-01-18T20:16:33.988Z,97816.84
2023-01-18T20:19:20.433Z,97824.53
2023-01-18T20:22:07.309Z,97828.34
2023-01-18T20:24:54.197Z,97824.09
2023-01-18T20:27:40.511Z,97798.53
2023-01-18T20:30:27.023Z,97815.03
2023-01-18T20:33:14.524Z,97854.72
2023-01-18T20:36:02.775Z,97836.66
2023-01-18T20:38:49.485Z,97847.13
2023-01-18T20:41:35.689Z,97846.25
2023-01-18T20:44:24.639Z,97860.03
2023-01-18T20:47:11.301Z,97847.13
2023-01-18T20:50:00.768Z,97859.56
2023-01-18T20:52:47.476Z,97859.16
2023-01-18T20:55:34.050Z,97871.31
2023-01-18T20:58:22.815Z,97871.69
2023-01-18T21:01:17.886Z,97876.53
2023-01-18T21:04:05.183Z,97887.66
2023-01-18T21:06:51.542Z,97886.50
2023-01-18T21:09:38.493Z,97883.53
2023-01-18T21:12:25.191Z,97883.63
2023-01-18T21:15:12.044Z,97890.38
2023-01-18T21:17:58.974Z,97887.66
2023-01-18T21:20:54.756Z,97902.28
2023-01-18T21:23:41.732Z,97893.19
2023-01-18T21:26:28.213Z,97873.81
2023-01-18T21:29:14.640Z,97894.72
2023-01-18T21:32:01.524Z,97898.72
2023-01-18T21:34:48.098Z,97909.03
2023-01-18T21:37:35.363Z,97917.88
2023-01-18T21:40:21.683Z,97911.59
2023-01-18T21:43:26.651Z,97856.31
2023-01-18T21:46:13.455Z,97916.59
2023-01-18T21:49:04.525Z,97924.97
2023-01-18T21:52:09.555Z,97919.81
2023-01-18T21:54:55.875Z,97927.94
2023-01-18T21:57:42.749Z,97912.97
2023-01-18T22:00:29.415Z,97932.53
2023-01-18T22:03:18.435Z,97945.19
2023-01-18T22:06:04.781Z,97933.38
2023-01-18T22:08:51.395Z,97952.84
2023-01-18T22:11:37.765Z,97946.66
2023-01-18T22:14:25.690Z,97952.50
2023-01-18T22:17:13.237Z,97940.50
2023-01-18T22:20:00.157Z,97960.50
2023-01-18T22:22:47.744Z,97953.41
2023-01-18T22:25:34.377Z,97963.28
2023-01-18T22:28:20.991Z,97961.69
2023-01-18T22:31:08.294Z,97974.31
2023-01-18T22:33:56.816Z,97946.41
2023-01-18T22:36:43.371Z,97969.25
2023-01-18T22:39:29.904Z,97967.81
2023-01-18T22:42:16.558Z,97952.09
2023-01-18T22:45:03.812Z,97988.19
2023-01-18T22:47:50.296Z,97984.50
2023-01-18T22:50:36.689Z,97982.50
2023-01-18T22:53:24.784Z,98000.19
2023-01-18T22:56:13.686Z,97997.34
2023-01-18T22:59:00.519Z,98007.47
2023-01-18T23:01:46.976Z,98005.75
2023-01-18T23:04:34.325Z,97991.03
2023-01-18T23:07:20.781Z,97999.13
2023-01-18T23:10:07.888Z,97937.63
2023-01-18T23:12:54.413Z,98009.38
2023-01-18T23:16:03.475Z,98021.19
2023-01-18T23:18:50.005Z,98004.94
2023-01-18T23:21:36.098Z,97992.94
2023-01-18T23:24:23.302Z,98023.72
2023-01-18T23:27:10.111Z,98034.53
2023-01-18T23:29:57.324Z,98028.44
2023-01-18T23:32:43.743Z,98024.09
2023-01-18T23:35:30.157Z,98026.63
2023-01-18T23:38:16.791Z,98020.28
2023-01-18T23:41:22.025Z,98026.63
2023-01-18T23:44:26.922Z,98027.63
2023-01-18T23:47:31.980Z,98039.78
2023-01-18T23:50:37.121Z,98036.16
2023-01-18T23:53:42.509Z,98055.59
2023-01-18T23:56:29.351Z,98049.34
2023-01-18T23:59:15.495Z,98046.81
